Time;durP1;ratioP1;P1;durP2;ratioP2;P2;SDS_P1;SDS_P2;PMS_P1;PMS_P2;Temp;Humidity;BMP_temperature;BMP_pressure;BME280_temperature;BME280_humidity;BME280_pressure;Samples;Min_cycle;Max_cycle;Signal;HPM_P1;HPM_P2
2021/09/19 00:01:11;;;;;;;4.55;3.60;;;18.40;95.40;;;;;;5027034;28;20115;-46
2021/09/19 00:03:37;;;;;;;4.88;4.30;;;18.50;95.80;;;;;;5082189;28;20031;-46
2021/09/19 00:06:03;;;;;;;7.22;3.90;;;18.40;96.20;;;;;;5059768;28;20036;-46
2021/09/19 00:08:29;;;;;;;7.40;5.40;;;18.40;96.70;;;;;;5060108;28;20391;-47
2021/09/19 00:10:56;;;;;;;8.02;5.97;;;18.30;97.40;;;;;;5074150;28;20043;-46
2021/09/19 00:13:22;;;;;;;11.30;7.85;;;18.20;98.20;;;;;;5106510;28;20538;-46
2021/09/19 00:15:47;;;;;;;14.10;7.93;;;18.10;98.40;;;;;;5063831;28;20044;-46
2021/09/19 00:18:13;;;;;;;16.80;8.35;;;18.10;98.20;;;;;;5116260;28;20475;-46
2021/09/19 00:20:39;;;;;;;13.95;8.80;;;18.20;97.90;;;;;;5046413;28;20031;-46
2021/09/19 00:23:07;;;;;;;13.98;8.45;;;18.30;97.90;;;;;;5116166;28;20039;-46
2021/09/19 00:25:33;;;;;;;11.80;7.35;;;18.30;98.10;;;;;;5115619;28;20378;-46
2021/09/19 00:27:59;;;;;;;9.52;6.28;;;18.40;97.80;;;;;;5127300;27;20035;-46
2021/09/19 00:30:25;;;;;;;10.98;6.80;;;18.40;97.60;;;;;;5131328;27;20024;-47
2021/09/19 00:32:51;;;;;;;9.15;6.72;;;18.40;97.50;;;;;;5097397;28;20478;-46
2021/09/19 00:35:16;;;;;;;10.18;6.45;;;18.40;97.80;;;;;;5080013;28;20043;-46
2021/09/19 00:37:43;;;;;;;11.43;6.00;;;18.30;97.80;;;;;;5053347;27;20571;-46
2021/09/19 00:40:10;;;;;;;10.90;6.68;;;18.30;97.80;;;;;;5136590;27;20034;-46
2021/09/19 00:42:36;;;;;;;7.78;5.72;;;18.30;97.90;;;;;;5025790;28;20097;-46
2021/09/19 00:45:11;;;;;;;10.80;5.57;;;18.30;98.20;;;;;;5062333;28;20052;-46
2021/09/19 00:47:38;;;;;;;8.75;5.93;;;18.20;98.40;;;;;;5080412;28;20043;-46
2021/09/19 00:50:04;;;;;;;7.10;4.82;;;18.20;98.40;;;;;;5079369;28;20550;-46
2021/09/19 00:52:31;;;;;;;7.47;5.05;;;18.20;98.20;;;;;;5016509;28;20050;-48
2021/09/19 00:54:59;;;;;;;6.57;4.53;;;18.30;98.10;;;;;;5092943;28;20459;-46
2021/09/19 00:57:27;;;;;;;6.65;4.68;;;18.30;97.60;;;;;;5092845;28;20515;-46
2021/09/19 00:59:53;;;;;;;8.18;5.00;;;18.30;97.90;;;;;;5092619;28;20051;-46
2021/09/19 01:02:20;;;;;;;8.82;5.65;;;17.80;98.40;;;;;;5092963;28;20099;-46
2021/09/19 01:04:47;;;;;;;8.48;5.03;;;17.50;99.50;;;;;;5092688;28;20035;-46
2021/09/19 01:07:16;;;;;;;7.90;5.60;;;17.40;99.80;;;;;;5092499;28;20036;-45
2021/09/19 01:09:42;;;;;;;6.15;5.03;;;17.70;99.70;;;;;;5092676;28;20171;-46
2021/09/19 01:12:09;;;;;;;6.90;4.88;;;17.90;99.40;;;;;;5042160;28;20032;-46
2021/09/19 01:14:38;;;;;;;5.57;4.60;;;18.00;99.00;;;;;;5075118;28;20036;-46
2021/09/19 01:17:05;;;;;;;9.77;5.63;;;18.10;98.80;;;;;;5058652;28;20058;-46
2021/09/19 01:19:34;;;;;;;8.40;5.03;;;18.20;98.60;;;;;;5105311;27;20079;-46
2021/09/19 01:22:00;;;;;;;7.43;4.68;;;17.90;99.00;;;;;;5135540;27;20034;-46
2021/09/19 01:24:28;;;;;;;7.00;4.75;;;17.70;99.50;;;;;;5107149;27;20038;-47
2021/09/19 01:26:54;;;;;;;7.80;4.50;;;17.90;99.90;;;;;;5156139;27;20122;-46
2021/09/19 01:29:20;;;;;;;8.05;4.97;;;17.90;99.90;;;;;;5156114;27;20030;-46
2021/09/19 01:31:46;;;;;;;8.18;5.43;;;17.70;99.90;;;;;;5102652;27;20518;-46
2021/09/19 01:34:12;;;;;;;6.60;5.15;;;17.60;99.90;;;;;;5156114;27;20026;-46
2021/09/19 01:36:38;;;;;;;6.55;5.05;;;17.50;99.90;;;;;;5155513;27;20478;-46
2021/09/19 01:39:05;;;;;;;6.88;3.88;;;;;;;;;;5102869;27;20043;-46
2021/09/19 01:41:31;;;;;;;5.60;3.67;;;;;;;;;;5116521;27;20039;-46
2021/09/19 01:43:58;;;;;;;7.32;3.88;;;;;;;;;;5155614;27;20581;-46
2021/09/19 01:46:24;;;;;;;4.88;3.90;;;;;;;;;;5126984;27;20097;-46
2021/09/19 01:48:50;;;;;;;4.60;3.58;;;;;;;;;;5114515;28;20106;-46
2021/09/19 01:51:16;;;;;;;5.68;4.18;;;;;;;;;;5063201;28;20073;-45
2021/09/19 01:53:42;;;;;;;5.25;4.28;;;;;;;;;;5123596;27;20072;-46
2021/09/19 01:56:09;;;;;;;7.30;4.05;;;17.70;99.90;;;;;;5123298;27;20043;-46
2021/09/19 01:58:48;;;;;;;4.57;4.07;;;17.70;99.90;;;;;;5114325;28;20024;-46
2021/09/19 02:01:15;;;;;;;6.72;3.88;;;17.60;99.90;;;;;;5133477;27;20156;-46
2021/09/19 02:03:41;;;;;;;19.60;5.40;;;17.60;99.90;;;;;;5123031;27;20027;-46
2021/09/19 02:06:09;;;;;;;5.68;4.30;;;17.70;99.90;;;;;;5114087;28;20027;-46
2021/09/19 02:08:36;;;;;;;6.15;4.43;;;17.90;99.90;;;;;;5114361;28;20035;-46
2021/09/19 02:11:07;;;;;;;5.80;4.80;;;17.90;99.90;;;;;;5125865;27;20031;-46
2021/09/19 02:13:33;;;;;;;5.43;4.75;;;17.90;99.90;;;;;;5098307;27;20035;-46
2021/09/19 02:16:00;;;;;;;7.05;5.07;;;17.90;99.90;;;;;;5124399;27;20031;-46
2021/09/19 02:18:26;;;;;;;7.70;5.10;;;17.80;99.90;;;;;;5114015;28;20020;-46
2021/09/19 02:20:52;;;;;;;5.63;4.68;;;17.90;99.90;;;;;;5113816;28;20054;-46
2021/09/19 02:23:18;;;;;;;5.65;4.55;;;17.90;99.90;;;;;;5095858;28;20055;-46
2021/09/19 02:25:44;;;;;;;7.70;4.88;;;17.90;99.90;;;;;;5111938;28;20430;-46
2021/09/19 02:28:10;;;;;;;5.68;4.90;;;18.00;99.90;;;;;;5114037;28;20467;-46
2021/09/19 02:30:36;;;;;;;6.93;5.55;;;18.00;99.90;;;;;;5119882;28;20019;-46
2021/09/19 02:33:02;;;;;;;8.15;5.78;;;17.90;99.90;;;;;;5123029;28;20641;-46
2021/09/19 02:35:28;;;;;;;6.57;5.35;;;17.80;99.90;;;;;;5099304;27;20054;-46
2021/09/19 02:37:53;;;;;;;7.47;5.55;;;17.90;99.90;;;;;;5064252;28;20459;-46
2021/09/19 02:40:19;;;;;;;9.38;5.57;;;17.90;99.90;;;;;;5081374;28;20039;-46
2021/09/19 02:42:47;;;;;;;7.90;5.95;;;17.60;99.90;;;;;;5047594;28;20038;-45
2021/09/19 02:45:13;;;;;;;7.68;6.15;;;17.50;99.90;;;;;;5075780;28;20422;-46
2021/09/19 02:47:40;;;;;;;7.97;5.70;;;17.50;99.90;;;;;;5091261;28;20043;-46
2021/09/19 02:50:08;;;;;;;6.50;5.57;;;17.50;99.90;;;;;;5090897;28;21374;-46
2021/09/19 02:52:34;;;;;;;9.25;6.03;;;17.50;99.90;;;;;;5039086;28;20042;-46
2021/09/19 02:55:00;;;;;;;8.38;5.68;;;17.30;99.90;;;;;;5018241;28;20037;-45
2021/09/19 02:57:25;;;;;;;7.90;6.00;;;17.30;99.90;;;;;;5034886;28;20074;-45
2021/09/19 02:59:51;;;;;;;8.30;6.18;;;17.30;99.90;;;;;;5034977;28;20045;-46
2021/09/19 03:02:17;;;;;;;6.75;5.53;;;17.20;99.90;;;;;;5051271;28;20045;-45
2021/09/19 03:04:43;;;;;;;6.25;5.63;;;17.10;99.90;;;;;;5034749;28;20053;-46
2021/09/19 03:07:09;;;;;;;6.95;5.68;;;17.10;99.90;;;;;;5034945;28;20030;-46
2021/09/19 03:09:35;;;;;;;9.88;6.55;;;17.00;99.90;;;;;;5034985;28;20130;-45
2021/09/19 03:12:00;;;;;;;8.10;6.22;;;17.00;99.90;;;;;;5034595;28;20496;-45
2021/09/19 03:14:26;;;;;;;7.65;5.45;;;16.90;99.90;;;;;;5034821;28;20036;-45
2021/09/19 03:16:52;;;;;;;7.07;6.05;;;16.90;99.90;;;;;;5065476;28;20123;-46
2021/09/19 03:19:17;;;;;;;7.70;6.05;;;16.90;99.90;;;;;;5032759;28;20442;-45
2021/09/19 03:21:43;;;;;;;7.30;5.90;;;16.90;99.90;;;;;;5089947;28;20112;-46
2021/09/19 03:24:09;;;;;;;8.02;6.30;;;16.80;99.90;;;;;;5094810;28;20032;-46
2021/09/19 03:26:34;;;;;;;10.25;6.30;;;16.80;99.90;;;;;;5094661;28;20020;-45
2021/09/19 03:29:03;;;;;;;6.28;5.57;;;16.80;99.90;;;;;;5098734;27;20024;-45
2021/09/19 03:31:29;;;;;;;7.28;5.35;;;16.80;99.90;;;;;;5051821;27;20035;-45
2021/09/19 03:33:55;;;;;;;8.90;5.97;;;16.70;99.90;;;;;;5097975;28;20383;-45
2021/09/19 03:36:21;;;;;;;6.95;5.70;;;16.60;99.90;;;;;;5064608;28;20043;-46
2021/09/19 03:38:46;;;;;;;8.68;5.93;;;16.60;99.90;;;;;;5098253;28;20040;-45
2021/09/19 03:41:14;;;;;;;7.22;5.78;;;16.70;99.90;;;;;;5116864;28;20028;-46
2021/09/19 03:43:41;;;;;;;10.55;5.30;;;16.60;99.90;;;;;;5117229;28;20032;-46
2021/09/19 03:46:07;;;;;;;8.43;5.97;;;16.60;99.90;;;;;;5088877;28;20444;-45
2021/09/19 03:48:32;;;;;;;6.05;5.10;;;16.60;99.90;;;;;;5116982;28;20107;-45
2021/09/19 03:50:59;;;;;;;9.15;5.43;;;16.60;99.90;;;;;;5116597;28;20032;-45
2021/09/19 03:53:25;;;;;;;7.70;5.43;;;;;;;;;;5073552;28;20471;-46
2021/09/19 03:55:51;;;;;;;8.93;5.72;;;16.40;99.90;;;;;;5080875;28;20047;-45
2021/09/19 03:58:17;;;;;;;8.90;5.60;;;16.40;99.90;;;;;;5129882;27;20026;-45
2021/09/19 04:00:43;;;;;;;6.50;5.35;;;16.50;99.90;;;;;;5137560;27;20020;-45
2021/09/19 04:03:09;;;;;;;7.60;5.70;;;16.20;99.90;;;;;;5136346;27;20480;-46
2021/09/19 04:05:36;;;;;;;10.60;6.10;;;;;;;;;;5137364;27;20022;-45
2021/09/19 04:08:03;;;;;;;8.88;5.93;;;15.80;99.90;;;;;;5137414;27;20446;-45
2021/09/19 04:10:29;;;;;;;8.68;5.45;;;15.90;99.90;;;;;;5101059;27;20474;-45
2021/09/19 04:12:55;;;;;;;8.50;5.45;;;15.70;99.90;;;;;;5137084;27;20034;-45
2021/09/19 04:15:21;;;;;;;10.55;6.80;;;15.60;99.90;;;;;;5117955;27;20382;-45
2021/09/19 04:17:47;;;;;;;9.88;6.05;;;15.70;99.90;;;;;;5063836;28;20093;-45
2021/09/19 04:20:13;;;;;;;8.82;6.35;;;15.70;99.90;;;;;;5116560;28;20059;-45
2021/09/19 04:22:39;;;;;;;7.07;5.90;;;15.80;99.90;;;;;;5053387;28;20107;-45
2021/09/19 04:25:06;;;;;;;8.05;6.03;;;15.70;99.90;;;;;;5053243;28;20044;-46
2021/09/19 04:27:32;;;;;;;9.02;5.97;;;15.70;99.90;;;;;;4987104;28;20100;-46
2021/09/19 04:29:58;;;;;;;7.88;6.05;;;15.70;99.90;;;;;;5053548;28;20441;-45
2021/09/19 04:32:24;;;;;;;6.95;6.22;;;15.50;99.90;;;;;;5019809;28;20073;-46
2021/09/19 04:34:50;;;;;;;8.15;6.68;;;15.50;99.90;;;;;;5053098;28;20043;-45
2021/09/19 04:37:17;;;;;;;8.82;6.32;;;15.50;99.90;;;;;;5053377;28;20104;-46
2021/09/19 04:39:44;;;;;;;11.07;7.45;;;15.40;99.90;;;;;;5036295;28;20033;-45
2021/09/19 04:42:10;;;;;;;8.43;6.40;;;15.50;99.90;;;;;;5053164;28;20225;-46
2021/09/19 04:44:36;;;;;;;9.65;6.43;;;15.70;99.90;;;;;;5036331;28;20052;-46
2021/09/19 04:47:02;;;;;;;15.10;7.60;;;15.80;99.90;;;;;;5056155;28;20044;-45
2021/09/19 04:49:28;;;;;;;13.82;8.20;;;15.90;99.90;;;;;;5033004;28;20033;-45
2021/09/19 04:51:54;;;;;;;11.10;7.85;;;16.00;99.90;;;;;;5013346;28;20512;-45
2021/09/19 04:54:20;;;;;;;10.88;7.07;;;16.20;99.90;;;;;;5012794;28;20065;-45
2021/09/19 04:56:45;;;;;;;10.98;7.78;;;16.20;99.90;;;;;;5012716;28;20183;-45
2021/09/19 04:59:11;;;;;;;9.23;6.80;;;16.30;99.90;;;;;;5020615;28;20041;-45
2021/09/19 05:01:37;;;;;;;11.73;7.15;;;16.40;99.90;;;;;;5072764;28;20043;-45
2021/09/19 05:04:02;;;;;;;11.73;6.53;;;16.40;99.90;;;;;;5072500;28;20392;-45
2021/09/19 05:06:28;;;;;;;12.77;6.45;;;16.50;99.90;;;;;;5072473;28;20028;-46
2021/09/19 05:08:54;;;;;;;9.10;6.72;;;16.50;99.90;;;;;;5072583;28;20130;-46
2021/09/19 05:11:20;;;;;;;10.52;6.60;;;16.50;99.90;;;;;;5026773;28;20033;-46
2021/09/19 05:13:46;;;;;;;10.98;7.07;;;16.50;99.90;;;;;;5072561;28;20123;-46
2021/09/19 05:16:11;;;;;;;14.25;7.03;;;16.60;99.90;;;;;;5037585;28;20062;-46
2021/09/19 05:18:37;;;;;;;9.15;6.82;;;16.60;99.90;;;;;;5022194;28;20059;-45
2021/09/19 05:21:03;;;;;;;8.90;7.57;;;16.70;99.90;;;;;;5085602;28;20480;-45
2021/09/19 05:23:30;;;;;;;9.95;7.10;;;16.80;99.90;;;;;;5115072;28;20509;-45
2021/09/19 05:25:55;;;;;;;11.43;7.40;;;16.90;99.90;;;;;;5128297;27;20023;-45
2021/09/19 05:28:21;;;;;;;8.65;6.72;;;16.90;99.90;;;;;;5099470;27;20383;-45
2021/09/19 05:30:47;;;;;;;10.35;6.82;;;16.90;99.90;;;;;;5065435;27;20031;-45
2021/09/19 05:33:13;;;;;;;10.55;6.38;;;17.00;99.90;;;;;;5126970;27;20402;-46
2021/09/19 05:35:39;;;;;;;8.32;6.53;;;17.00;99.90;;;;;;5118477;27;20387;-46
2021/09/19 05:38:06;;;;;;;12.55;7.53;;;17.10;99.90;;;;;;5114895;28;20027;-45
2021/09/19 05:40:32;;;;;;;9.02;6.57;;;17.20;99.90;;;;;;5114664;28;20383;-45
2021/09/19 05:42:57;;;;;;;7.35;6.43;;;17.30;99.90;;;;;;5114751;28;20447;-45
2021/09/19 05:45:23;;;;;;;10.50;6.50;;;17.30;99.90;;;;;;5061655;28;20039;-45
2021/09/19 05:47:49;;;;;;;9.20;7.38;;;17.40;99.90;;;;;;5114561;28;20024;-45
2021/09/19 05:50:15;;;;;;;9.43;7.15;;;17.50;99.90;;;;;;5062137;28;20028;-46
2021/09/19 05:52:40;;;;;;;8.10;6.70;;;17.50;99.90;;;;;;5114470;28;20023;-45
2021/09/19 05:55:07;;;;;;;10.50;7.18;;;17.60;99.90;;;;;;5114349;28;20030;-45
2021/09/19 05:57:32;;;;;;;11.50;6.43;;;17.70;99.90;;;;;;5078275;28;20486;-45
2021/09/19 05:59:59;;;;;;;9.35;6.28;;;17.70;99.90;;;;;;5114499;28;20111;-45
2021/09/19 06:02:25;;;;;;;10.27;5.85;;;17.60;99.90;;;;;;5114230;28;20050;-45
2021/09/19 06:04:50;;;;;;;6.18;5.55;;;17.60;99.90;;;;;;5114284;28;20471;-45
2021/09/19 06:07:16;;;;;;;8.18;6.03;;;17.60;99.90;;;;;;5061911;28;20035;-45
2021/09/19 06:09:42;;;;;;;7.82;5.88;;;17.60;99.90;;;;;;5114045;28;20028;-45
2021/09/19 06:12:08;;;;;;;8.70;5.90;;;17.70;99.90;;;;;;5114295;28;20027;-45
2021/09/19 06:14:34;;;;;;;6.80;5.90;;;17.80;99.90;;;;;;5114414;28;20032;-45
2021/09/19 06:16:59;;;;;;;7.63;5.32;;;17.80;99.90;;;;;;5113862;28;20036;-45
2021/09/19 06:19:25;;;;;;;10.65;5.75;;;17.80;99.90;;;;;;5114203;28;20129;-46
2021/09/19 06:21:51;;;;;;;8.52;5.95;;;18.00;99.90;;;;;;5115815;27;20474;-45
2021/09/19 06:24:17;;;;;;;7.50;6.20;;;17.90;99.90;;;;;;5094085;27;20439;-45
2021/09/19 06:26:43;;;;;;;8.63;5.60;;;18.00;99.90;;;;;;5122081;27;20019;-45
2021/09/19 06:29:08;;;;;;;8.55;5.82;;;18.10;99.90;;;;;;5124091;27;20023;-45
2021/09/19 06:31:34;;;;;;;6.40;5.80;;;18.20;99.90;;;;;;5124391;27;20494;-45
2021/09/19 06:34:00;;;;;;;7.40;6.50;;;18.40;99.90;;;;;;5078777;28;20051;-46
2021/09/19 06:36:26;;;;;;;7.97;6.20;;;18.30;99.90;;;;;;5078912;28;20490;-45
2021/09/19 06:38:51;;;;;;;7.97;5.93;;;18.40;99.90;;;;;;5055637;28;20602;-46
2021/09/19 06:41:17;;;;;;;10.85;6.95;;;18.70;99.90;;;;;;5059890;28;20036;-45
2021/09/19 06:43:43;;;;;;;12.70;8.43;;;18.50;99.90;;;;;;5108083;28;20036;-46
2021/09/19 06:46:09;;;;;;;11.15;7.63;;;18.70;99.90;;;;;;5080134;28;20419;-45
2021/09/19 06:48:35;;;;;;;12.90;8.27;;;19.00;99.90;;;;;;5083818;28;20056;-46
2021/09/19 06:51:02;;;;;;;9.20;6.68;;;19.20;99.90;;;;;;5070851;28;20039;-45
2021/09/19 06:53:27;;;;;;;9.10;7.35;;;19.30;99.90;;;;;;5004046;28;20533;-45
2021/09/19 06:55:54;;;;;;;9.63;7.18;;;19.50;99.90;;;;;;5084935;28;20039;-46
2021/09/19 06:58:20;;;;;;;11.75;7.07;;;19.70;99.90;;;;;;5088532;28;20136;-45
2021/09/19 07:00:45;;;;;;;8.15;7.03;;;19.70;99.90;;;;;;5085166;28;20469;-45
2021/09/19 07:03:11;;;;;;;9.02;7.07;;;20.00;99.90;;;;;;5075191;28;20024;-45
2021/09/19 07:05:37;;;;;;;7.38;6.43;;;20.20;99.90;;;;;;5079570;28;20097;-45
2021/09/19 07:08:03;;;;;;;7.70;6.20;;;20.30;99.90;;;;;;5081127;28;20056;-45
2021/09/19 07:10:29;;;;;;;9.23;5.93;;;20.70;99.90;;;;;;5117389;28;20039;-45
2021/09/19 07:12:55;;;;;;;7.25;5.88;;;20.90;99.50;;;;;;5111455;28;20408;-46
2021/09/19 07:15:20;;;;;;;7.93;5.95;;;20.90;99.70;;;;;;5130478;28;20040;-46
2021/09/19 07:17:46;;;;;;;7.65;5.88;;;21.10;99.50;;;;;;5071002;28;20027;-46
2021/09/19 07:20:12;;;;;;;12.90;5.70;;;21.40;98.90;;;;;;5122971;28;20485;-45
2021/09/19 07:22:40;;;;;;;8.68;6.15;;;21.50;98.30;;;;;;5122419;27;20026;-46
2021/09/19 07:25:07;;;;;;;6.05;5.32;;;21.80;97.80;;;;;;5133895;28;20362;-46
2021/09/19 07:27:33;;;;;;;8.18;5.63;;;22.00;97.60;;;;;;5098088;28;20194;-45
2021/09/19 07:30:00;;;;;;;6.25;4.85;;;22.20;97.30;;;;;;5133666;28;20470;-46
2021/09/19 07:32:26;;;;;;;7.63;5.60;;;22.60;96.90;;;;;;5097903;28;20031;-46
2021/09/19 07:34:51;;;;;;;8.80;5.28;;;22.90;96.80;;;;;;5133782;27;20027;-45
2021/09/19 07:37:19;;;;;;;7.40;5.63;;;23.20;96.00;;;;;;5080258;27;20096;-47
2021/09/19 07:39:45;;;;;;;7.57;4.63;;;23.40;95.10;;;;;;5137071;27;20375;-46
2021/09/19 07:42:12;;;;;;;7.10;5.20;;;23.60;94.80;;;;;;5124344;27;20024;-46
2021/09/19 07:44:38;;;;;;;6.57;5.00;;;23.40;93.70;;;;;;5071011;27;20371;-46
2021/09/19 07:47:05;;;;;;;6.18;4.50;;;24.10;93.50;;;;;;5157368;27;20134;-45
2021/09/19 07:49:31;;;;;;;6.60;4.97;;;24.30;92.90;;;;;;5121122;27;20053;-46
2021/09/19 07:51:57;;;;;;;6.07;4.70;;;24.50;92.10;;;;;;5112736;27;20035;-45
2021/09/19 07:54:23;;;;;;;7.03;4.85;;;24.70;91.80;;;;;;5156590;27;20026;-46
2021/09/19 07:56:50;;;;;;;7.32;4.53;;;;;;;;;;5126891;27;20051;-46
2021/09/19 07:59:15;;;;;;;6.10;4.45;;;25.50;90.60;;;;;;5125974;27;20046;-47
2021/09/19 08:01:41;;;;;;;5.82;4.50;;;25.80;90.70;;;;;;5156929;27;20033;-45
2021/09/19 08:04:07;;;;;;;5.95;4.68;;;25.50;88.10;;;;;;5157264;27;20106;-46
2021/09/19 08:06:32;;;;;;;7.43;4.28;;;25.40;86.90;;;;;;5156738;27;20034;-46
2021/09/19 08:08:58;;;;;;;6.80;5.40;;;24.80;88.00;;;;;;5156572;27;20390;-46
2021/09/19 08:11:24;;;;;;;6.93;4.30;;;24.30;89.00;;;;;;5156958;27;20449;-45
2021/09/19 08:13:55;;;;;;;5.72;4.25;;;24.70;90.40;;;;;;5156850;27;20027;-46
2021/09/19 08:16:21;;;;;;;7.90;4.67;;;26.40;90.40;;;;;;5156304;27;20039;-45
2021/09/19 08:18:46;;;;;;;6.32;4.50;;;26.40;88.20;;;;;;5124850;27;20037;-46
2021/09/19 08:21:12;;;;;;;5.32;4.05;;;;;;;;;;5156625;27;20168;-46
2021/09/19 08:23:38;;;;;;;4.43;4.00;;;27.40;84.30;;;;;;5155658;27;20481;-46
2021/09/19 08:26:04;;;;;;;5.70;4.30;;;28.00;91.40;;;;;;5108249;27;20065;-45
2021/09/19 08:28:30;;;;;;;6.20;3.90;;;;;;;;;;5110782;27;20053;-45
2021/09/19 08:30:56;;;;;;;6.10;3.85;;;;;;;;;;5154692;27;20454;-45
2021/09/19 08:33:27;;;;;;;5.32;4.03;;;;;;;;;;5154729;27;20417;-45
2021/09/19 08:35:54;;;;;;;5.78;3.45;;;;;;;;;;5154336;27;20127;-45
2021/09/19 08:38:20;;;;;;;6.13;3.72;;;29.30;77.30;;;;;;5154495;27;20477;-46
2021/09/19 08:40:46;;;;;;;7.78;3.25;;;28.40;76.50;;;;;;5156542;27;20027;-46
2021/09/19 08:43:12;;;;;;;6.32;4.07;;;28.80;74.60;;;;;;5155579;27;20061;-46
2021/09/19 08:45:39;;;;;;;7.28;4.35;;;28.10;74.10;;;;;;5155357;27;20042;-45
2021/09/19 08:48:05;;;;;;;5.57;4.03;;;27.40;74.70;;;;;;5126896;27;20030;-46
2021/09/19 08:50:31;;;;;;;7.30;3.88;;;28.10;75.30;;;;;;5087653;27;20038;-46
2021/09/19 08:52:57;;;;;;;6.13;3.85;;;27.70;75.30;;;;;;5155482;27;20438;-46
2021/09/19 08:55:23;;;;;;;4.38;3.45;;;;;;;;;;5155912;27;20034;-46
2021/09/19 08:57:49;;;;;;;4.95;3.83;;;29.40;90.30;;;;;;5155709;27;20038;-46
2021/09/19 09:00:16;;;;;;;6.10;3.80;;;29.60;73.70;;;;;;5155936;27;20091;-46
2021/09/19 09:02:50;;;;;;;4.72;3.25;;;;;;;;;;5155892;27;20035;-46
2021/09/19 09:05:27;;;;;;;3.97;3.35;;;30.50;95.00;;;;;;5155488;27;20058;-46
2021/09/19 09:07:56;;;;;;;4.55;3.42;;;;;;;;;;5155520;27;20034;-46
2021/09/19 09:10:33;;;;;;;5.35;3.38;;;;;;;;;;5155295;27;20038;-43
2021/09/19 09:13:03;;;;;;;7.80;3.85;;;;;;;;;;5155607;27;20022;-46
2021/09/19 09:15:33;;;;;;;4.75;3.38;;;;;;;;;;5155731;27;20374;-47
2021/09/19 09:17:59;;;;;;;4.65;3.35;;;31.50;87.50;;;;;;5155381;27;20113;-48
2021/09/19 09:20:25;;;;;;;4.43;3.45;;;31.60;69.00;;;;;;5155438;27;20522;-48
2021/09/19 09:22:51;;;;;;;5.70;3.70;;;;;;;;;;5153909;27;20361;-47
2021/09/19 09:25:17;;;;;;;4.40;3.53;;;30.40;67.20;;;;;;5155101;27;20031;-47
2021/09/19 09:27:48;;;;;;;5.22;3.80;;;30.60;68.50;;;;;;5121598;27;20042;-48
2021/09/19 09:30:16;;;;;;;5.60;3.70;;;30.60;68.20;;;;;;5155793;27;20034;-46
2021/09/19 09:32:50;;;;;;;5.72;3.53;;;;;;;;;;5154323;27;20394;-47
2021/09/19 09:35:17;;;;;;;4.65;3.70;;;;;;;;;;5154677;27;20041;-47
2021/09/19 09:37:43;;;;;;;5.07;3.63;;;;;;;;;;5154419;27;20118;-48
2021/09/19 09:40:20;;;;;;;4.32;3.78;;;32.70;64.70;;;;;;5155639;27;20386;-47
2021/09/19 09:43:11;;;;;;;3.58;3.10;;;32.60;65.00;;;;;;5154837;27;20030;-47
2021/09/19 09:45:39;;;;;;;5.03;3.37;;;32.50;65.00;;;;;;5108141;27;20043;-46
2021/09/19 09:48:24;;;;;;;5.93;3.38;;;32.50;65.20;;;;;;5097570;28;20044;-47
2021/09/19 09:50:51;;;;;;;4.68;3.47;;;32.10;64.00;;;;;;5095083;28;20043;-47
2021/09/19 09:53:22;;;;;;;3.65;3.13;;;32.30;64.50;;;;;;5099688;28;20039;-47
2021/09/19 09:55:48;;;;;;;4.57;3.70;;;32.30;63.00;;;;;;5095322;28;20061;-47
2021/09/19 09:58:20;;;;;;;4.90;3.60;;;31.90;63.10;;;;;;5100254;28;20039;-47
2021/09/19 10:00:54;;;;;;;;;;;32.50;63.40;;;;;;5086069;28;20391;-47
2021/09/19 10:03:20;;;;;;;6.43;3.28;;;;;;;;;;5098131;28;19917;-46
2021/09/19 10:05:47;;;;;;;4.95;3.42;;;;;;;;;;5093977;28;20032;-47
2021/09/19 10:08:13;;;;;;;6.63;3.13;;;;;;;;;;5101112;28;20044;-48
2021/09/19 10:10:41;;;;;;;4.47;3.55;;;33.20;84.50;;;;;;5099046;28;20040;-47
2021/09/19 10:13:08;;;;;;;6.28;3.35;;;;;;;;;;5095609;28;20124;-46
2021/09/19 10:15:34;;;;;;;5.70;3.33;;;;;;;;;;5096840;28;20047;-49
2021/09/19 10:18:01;;;;;;;5.25;3.13;;;33.80;89.00;;;;;;5102939;27;20040;-48
2021/09/19 10:20:29;;;;;;;3.88;3.00;;;33.70;63.80;;;;;;5154022;27;20062;-47
2021/09/19 10:22:58;;;;;;;3.72;3.15;;;33.80;66.90;;;;;;5153906;27;20027;-47
2021/09/19 10:25:35;;;;;;;6.65;3.60;;;33.90;79.90;;;;;;5154164;27;20022;-48
2021/09/19 10:28:34;;;;;;;4.25;3.17;;;34.10;78.40;;;;;;5157215;27;20027;-47
2021/09/19 10:31:11;;;;;;;5.28;3.40;;;34.50;78.50;;;;;;5154796;27;20470;-48
2021/09/19 10:33:39;;;;;;;3.35;2.55;;;33.80;58.90;;;;;;5154055;27;20068;-47
2021/09/19 10:36:23;;;;;;;4.97;3.15;;;;;;;;;;5153551;27;20043;-48
2021/09/19 10:38:49;;;;;;;5.70;3.20;;;32.90;76.40;;;;;;5115059;27;20050;-48
2021/09/19 10:41:21;;;;;;;4.25;3.28;;;33.10;60.00;;;;;;5154686;27;20485;-48
2021/09/19 10:43:53;;;;;;;;;;;33.10;58.60;;;;;;5153891;27;20109;-48
2021/09/19 10:46:34;;;;;;;3.35;2.70;;;33.60;59.60;;;;;;5153876;27;20395;-47
2021/09/19 10:49:17;;;;;;;2.83;2.47;;;34.10;66.70;;;;;;5154054;27;20027;-47
2021/09/19 10:52:01;;;;;;;4.45;2.67;;;34.00;58.30;;;;;;5151870;27;20062;-48
2021/09/19 10:54:43;;;;;;;3.78;2.70;;;34.20;56.50;;;;;;5153859;27;20023;-48
2021/09/19 10:57:20;;;;;;;4.18;3.17;;;32.90;56.30;;;;;;5153457;27;20035;-48
2021/09/19 11:00:07;;;;;;;3.00;2.60;;;32.50;57.00;;;;;;5119325;27;20054;-49
2021/09/19 11:02:38;;;;;;;5.13;3.00;;;33.10;56.60;;;;;;5154508;27;20351;-47
2021/09/19 11:05:27;;;;;;;4.30;2.88;;;32.90;57.10;;;;;;5127962;27;20608;-47
2021/09/19 11:08:09;;;;;;;4.15;3.08;;;32.90;57.90;;;;;;5156226;27;20035;-48
2021/09/19 11:11:01;;;;;;;3.70;3.03;;;33.00;57.40;;;;;;5102569;27;20452;-49
2021/09/19 11:13:41;;;;;;;;;;;33.30;57.60;;;;;;5073705;28;20170;-48
2021/09/19 11:16:06;;;;;;;3.25;2.78;;;33.30;58.40;;;;;;5078823;28;20578;-48
2021/09/19 11:18:40;;;;;;;4.35;2.97;;;33.20;57.40;;;;;;5078745;28;20118;-49
2021/09/19 11:21:28;;;;;;;3.08;2.42;;;33.30;57.00;;;;;;5084895;28;20032;-48
2021/09/19 11:24:03;;;;;;;5.72;3.08;;;33.80;56.00;;;;;;5073520;28;20135;-47
2021/09/19 11:26:38;;;;;;;4.50;2.95;;;33.90;56.40;;;;;;5085971;28;20040;-48
2021/09/19 11:29:16;;;;;;;4.47;3.40;;;33.50;56.40;;;;;;5084935;28;20037;-48
2021/09/19 11:31:45;;;;;;;3.60;2.85;;;33.00;56.60;;;;;;5082797;28;20040;-48
2021/09/19 11:34:20;;;;;;;5.82;2.80;;;32.90;57.10;;;;;;5056992;28;20040;-48
2021/09/19 11:36:57;;;;;;;5.10;3.10;;;32.50;56.90;;;;;;5066598;28;20056;-48
2021/09/19 11:39:30;;;;;;;6.85;3.20;;;32.70;57.10;;;;;;5082843;28;20040;-48
2021/09/19 11:41:56;;;;;;;4.07;2.92;;;32.20;57.50;;;;;;5019870;28;20064;-49
2021/09/19 11:44:22;;;;;;;3.35;2.80;;;32.50;58.30;;;;;;5073927;28;20550;-48
2021/09/19 11:46:51;;;;;;;5.70;2.90;;;32.00;56.50;;;;;;5046763;28;20044;-48
2021/09/19 11:49:18;;;;;;;3.97;3.58;;;32.30;58.80;;;;;;5047542;27;20086;-48
2021/09/19 11:51:44;;;;;;;2.97;2.55;;;32.30;58.70;;;;;;5159089;27;20350;-48
2021/09/19 11:54:16;;;;;;;3.17;2.53;;;32.50;58.10;;;;;;5156803;27;20437;-48
2021/09/19 11:56:45;;;;;;;2.80;2.47;;;32.80;57.60;;;;;;5156813;27;20034;-47
2021/09/19 11:59:13;;;;;;;3.85;3.10;;;33.00;55.80;;;;;;5135307;27;20420;-48
2021/09/19 12:01:40;;;;;;;4.53;2.63;;;32.70;55.90;;;;;;5156505;27;20358;-49
2021/09/19 12:04:07;;;;;;;4.72;2.38;;;33.10;55.40;;;;;;5111735;27;20076;-48
2021/09/19 12:06:34;;;;;;;3.55;2.45;;;33.40;55.80;;;;;;5156441;27;20111;-49
2021/09/19 12:09:00;;;;;;;2.85;2.25;;;;;;;;;;5156632;27;20526;-48
2021/09/19 12:11:43;;;;;;;4.72;2.60;;;;;;;;;;5155435;27;20019;-50
2021/09/19 12:14:22;;;;;;;4.68;2.58;;;;;;;;;;5120840;27;20027;-49
2021/09/19 12:17:07;;;;;;;10.30;6.03;;;;;;;;;;5156167;27;20465;-49
2021/09/19 12:19:35;;;;;;;5.97;2.83;;;33.60;75.70;;;;;;5157976;27;20026;-49
2021/09/19 12:22:14;;;;;;;2.90;2.50;;;33.90;79.80;;;;;;5155928;27;20481;-49
2021/09/19 12:24:40;;;;;;;3.63;2.20;;;32.50;55.40;;;;;;5155529;27;20018;-50
2021/09/19 12:27:14;;;;;;;3.85;2.03;;;32.10;55.70;;;;;;5155704;27;20027;-50
2021/09/19 12:29:45;;;;;;;3.95;2.30;;;32.20;55.40;;;;;;5155006;27;20015;-50
2021/09/19 12:32:11;;;;;;;7.05;2.20;;;;;;;;;;5155939;27;20026;-49
2021/09/19 12:34:37;;;;;;;3.53;2.47;;;31.70;59.50;;;;;;5153897;27;20030;-48
2021/09/19 12:37:03;;;;;;;2.03;1.83;;;31.70;56.30;;;;;;5155154;27;20433;-48
2021/09/19 12:39:31;;;;;;;5.25;2.40;;;31.80;56.00;;;;;;5155820;27;20030;-49
2021/09/19 12:42:03;;;;;;;3.08;2.30;;;31.60;55.70;;;;;;5120219;27;20389;-50
2021/09/19 12:44:33;;;;;;;2.75;2.33;;;31.50;55.90;;;;;;5154870;27;20090;-48
2021/09/19 12:47:01;;;;;;;3.70;2.03;;;31.70;56.00;;;;;;5156255;27;20096;-49
2021/09/19 12:49:34;;;;;;;2.85;2.55;;;32.10;56.10;;;;;;5121369;27;20034;-49
2021/09/19 12:52:07;;;;;;;2.75;2.08;;;32.50;57.70;;;;;;5155532;27;20319;-48
2021/09/19 12:54:56;;;;;;;4.10;2.35;;;33.10;54.60;;;;;;5124992;27;20034;-49
2021/09/19 12:57:25;;;;;;;3.35;2.13;;;33.30;54.70;;;;;;5154259;27;20133;-49
2021/09/19 12:59:51;;;;;;;2.70;2.03;;;33.10;54.50;;;;;;5155415;27;20034;-48
2021/09/19 13:02:18;;;;;;;3.15;2.10;;;32.90;54.40;;;;;;5155121;27;20074;-54